Scunthorpe, United Kingdom
Current Conditions -  °F | °C
As of 2:20 AM on Friday 21 Nov 2014 (Local Time) from EGNJ Reporting Station
Moderate Fog Moderate Fog  
Wind Chill: 45°   Ceiling: 3200
Heat Index: 45°   Visibility: 0.56mi
Dew Point: 43°   Wind: 3mph
Humidity: 93%   Direction: NA
Pressure: 30.24"   Gusts: NA
Location:  53.58°N, 0.65°W
Report Text: EGNJ 210220Z AUTO VRB03KT 0900 FG SCT025/// OVC032/// 07/06 Q1024
Loading
Personal Weather Stations






























Interactive Weather Map New forecast layout! Learn more

10-Day Weather Forecast

Advertisements
Track Severe Weather on mobile